createdAt,value
2023-02-13T00:00:29.763Z,67.22
2023-02-13T00:02:56.335Z,66.50
2023-02-13T00:05:22.870Z,66.15
2023-02-13T00:07:49.497Z,66.28
2023-02-13T00:10:16.531Z,66.58
2023-02-13T00:12:45.730Z,66.26
2023-02-13T00:16:05.671Z,65.55
2023-02-13T00:18:46.229Z,66.42
2023-02-13T00:21:15.449Z,66.50
2023-02-13T00:23:41.992Z,67.30
2023-02-13T00:26:13.840Z,67.35
2023-02-13T00:28:40.780Z,66.63
2023-02-13T00:31:14.092Z,66.67
2023-02-13T00:36:17.517Z,68.17
2023-02-13T00:38:44.884Z,67.72
2023-02-13T00:41:12.003Z,67.22
2023-02-13T00:43:39.107Z,67.38
2023-02-13T00:46:17.013Z,69.01
2023-02-13T00:49:14.856Z,68.88
2023-02-13T00:52:12.486Z,69.58
2023-02-13T00:54:54.515Z,69.44
2023-02-13T00:57:21.091Z,67.72
2023-02-13T00:59:47.694Z,68.23
2023-02-13T01:02:14.336Z,68.04
2023-02-13T01:04:40.950Z,67.02
2023-02-13T01:07:07.536Z,67.94
2023-02-13T01:09:34.120Z,68.15
2023-02-13T01:12:00.774Z,68.81
2023-02-13T01:14:27.314Z,68.54
2023-02-13T01:16:54.016Z,68.99
2023-02-13T01:19:59.279Z,68.85
2023-02-13T01:22:45.902Z,68.70
2023-02-13T01:25:12.452Z,68.96
2023-02-13T01:27:39.003Z,68.95
2023-02-13T01:30:11.730Z,69.29
2023-02-13T01:32:38.329Z,68.57
2023-02-13T01:35:05.237Z,67.90
2023-02-13T01:37:51.174Z,68.91
2023-02-13T01:40:17.839Z,69.18
2023-02-13T01:42:44.853Z,68.45
2023-02-13T01:45:28.324Z,68.79
2023-02-13T01:48:09.450Z,68.50
2023-02-13T01:51:45.344Z,67.67
2023-02-13T01:54:19.383Z,67.59
2023-02-13T01:56:53.773Z,67.10
2023-02-13T01:59:26.148Z,67.33
2023-02-13T02:01:54.335Z,68.03
2023-02-13T02:04:39.763Z,67.37
2023-02-13T02:09:44.264Z,68.53
2023-02-13T02:12:10.746Z,68.19
2023-02-13T02:14:38.349Z,68.33
2023-02-13T02:17:05.027Z,68.69
2023-02-13T02:19:56.336Z,68.92
2023-02-13T02:26:44.087Z,67.88
2023-02-13T02:29:21.566Z,69.09
2023-02-13T02:32:09.997Z,67.70
2023-02-13T02:34:48.631Z,68.49
2023-02-13T02:37:58.174Z,68.91
2023-02-13T02:41:05.616Z,69.32
2023-02-13T02:43:47.754Z,68.79
2023-02-13T02:46:28.266Z,69.38
2023-02-13T02:49:26.700Z,69.01
2023-02-13T02:52:47.535Z,68.85
2023-02-13T02:55:32.720Z,68.25
2023-02-13T02:59:14.883Z,68.59
2023-02-13T03:02:02.456Z,68.15
2023-02-13T03:08:44.970Z,68.92
2023-02-13T03:11:46.642Z,68.79
2023-02-13T03:14:16.708Z,68.94
2023-02-13T03:17:02.211Z,69.53
2023-02-13T03:29:20.277Z,69.96
2023-02-13T03:32:30.843Z,70.43
2023-02-13T03:38:59.618Z,69.08
2023-02-13T03:41:41.849Z,69.20
2023-02-13T03:44:30.841Z,69.87
2023-02-13T03:47:00.850Z,69.95
2023-02-13T03:49:54.993Z,69.93
2023-02-13T03:57:54.763Z,69.77
2023-02-13T04:00:22.217Z,69.47
2023-02-13T04:06:52.170Z,70.83
2023-02-13T04:09:18.719Z,70.77
2023-02-13T04:12:03.251Z,70.84
2023-02-13T04:14:47.505Z,70.80
2023-02-13T04:17:21.421Z,71.18
2023-02-13T04:19:48.141Z,71.38
2023-02-13T04:22:21.233Z,71.06
2023-02-13T04:24:47.717Z,71.50
2023-02-13T04:27:16.542Z,70.40
2023-02-13T04:29:43.296Z,70.36
2023-02-13T04:32:36.565Z,70.87
2023-02-13T04:35:18.096Z,71.67
2023-02-13T04:37:45.130Z,71.12
2023-02-13T04:40:14.644Z,71.11
2023-02-13T04:42:41.220Z,71.12
2023-02-13T04:45:08.205Z,70.96
2023-02-13T04:47:34.851Z,71.28
2023-02-13T04:50:01.404Z,71.75
2023-02-13T04:52:27.983Z,71.33
2023-02-13T04:54:54.500Z,71.33
2023-02-13T04:57:21.068Z,71.34
2023-02-13T04:59:47.649Z,70.71
2023-02-13T05:02:14.162Z,70.41
2023-02-13T05:04:40.785Z,70.53
2023-02-13T05:07:07.354Z,70.72
2023-02-13T05:09:34.004Z,70.14
2023-02-13T05:12:00.602Z,70.88
2023-02-13T05:14:27.162Z,70.66
2023-02-13T05:16:53.762Z,70.37
2023-02-13T05:19:20.368Z,70.13
2023-02-13T05:25:28.755Z,69.06
2023-02-13T05:27:55.341Z,69.37
2023-02-13T05:30:22.069Z,68.88
2023-02-13T05:32:50.865Z,68.15
2023-02-13T05:35:18.596Z,68.86
2023-02-13T05:37:45.610Z,69.70
2023-02-13T05:40:13.485Z,69.33
2023-02-13T05:42:43.505Z,69.18
2023-02-13T05:45:10.710Z,69.50
2023-02-13T05:47:37.301Z,69.51
2023-02-13T05:50:04.027Z,70.10
2023-02-13T05:52:30.607Z,70.06
2023-02-13T05:57:34.711Z,71.00
2023-02-13T06:00:01.502Z,70.49
2023-02-13T06:02:28.161Z,69.93
2023-02-13T06:08:17.565Z,70.52
2023-02-13T06:10:59.930Z,69.80
2023-02-13T06:13:26.726Z,70.77
2023-02-13T06:15:53.644Z,70.46
2023-02-13T06:18:20.226Z,70.37
2023-02-13T06:20:46.957Z,69.52
2023-02-13T06:23:13.937Z,69.82
2023-02-13T06:25:40.696Z,69.58
2023-02-13T06:28:07.423Z,68.62
2023-02-13T06:30:34.206Z,68.44
2023-02-13T06:33:01.022Z,67.66
2023-02-13T06:35:28.210Z,67.70
2023-02-13T06:37:54.847Z,67.53
2023-02-13T06:40:21.539Z,67.87
2023-02-13T06:42:48.275Z,67.62
2023-02-13T06:45:14.981Z,68.18
2023-02-13T06:47:47.211Z,67.75
2023-02-13T06:50:16.068Z,67.60
2023-02-13T06:52:47.967Z,67.41
2023-02-13T06:55:30.005Z,67.51
2023-02-13T06:57:56.640Z,67.62
2023-02-13T07:00:26.077Z,67.67
2023-02-13T07:02:52.846Z,67.59
2023-02-13T07:05:32.197Z,67.05
2023-02-13T07:08:45.270Z,66.79
2023-02-13T07:11:24.265Z,66.41
2023-02-13T07:13:50.945Z,66.27
2023-02-13T07:16:17.657Z,65.86
2023-02-13T07:18:44.259Z,65.40
2023-02-13T07:21:11.256Z,65.25
2023-02-13T07:23:37.941Z,65.11
2023-02-13T07:26:04.721Z,65.54
2023-02-13T07:28:31.724Z,65.03
2023-02-13T07:31:03.431Z,64.48
2023-02-13T07:33:30.046Z,65.20
2023-02-13T07:35:56.612Z,64.59
2023-02-13T07:38:23.197Z,64.37
2023-02-13T07:41:17.394Z,64.52
2023-02-13T07:44:08.486Z,64.21
2023-02-13T07:46:35.140Z,63.13
2023-02-13T07:49:01.666Z,63.23
2023-02-13T07:51:29.164Z,62.44
2023-02-13T07:53:57.322Z,62.13
2023-02-13T07:56:24.243Z,61.32
2023-02-13T07:58:50.833Z,61.53
2023-02-13T08:01:17.643Z,60.69
2023-02-13T08:03:50.761Z,59.96
2023-02-13T08:06:18.703Z,60.55
2023-02-13T08:08:45.352Z,61.87
2023-02-13T08:11:49.522Z,61.13
2023-02-13T08:16:51.972Z,59.59
2023-02-13T08:19:18.886Z,59.20
2023-02-13T08:21:45.796Z,59.17
2023-02-13T08:24:13.512Z,57.44
2023-02-13T08:26:40.314Z,55.55
2023-02-13T08:29:19.028Z,55.30
2023-02-13T08:32:07.690Z,56.56
2023-02-13T08:34:52.742Z,57.11
2023-02-13T08:37:19.343Z,56.14
2023-02-13T08:39:55.236Z,56.40
2023-02-13T08:42:21.790Z,56.34
2023-02-13T08:45:03.589Z,55.08
2023-02-13T08:47:30.330Z,54.20
2023-02-13T08:49:56.879Z,54.26
2023-02-13T08:52:23.511Z,53.98
2023-02-13T08:54:50.065Z,53.17
2023-02-13T08:57:16.612Z,54.53
2023-02-13T08:59:48.084Z,54.01
2023-02-13T09:02:14.956Z,53.21
2023-02-13T09:04:41.505Z,53.34
2023-02-13T09:07:08.090Z,52.92
2023-02-13T09:10:12.493Z,53.59
2023-02-13T09:13:04.181Z,53.14
2023-02-13T09:15:31.632Z,52.76
2023-02-13T09:17:58.323Z,52.91
2023-02-13T09:20:25.168Z,52.54
2023-02-13T09:22:51.777Z,51.84
2023-02-13T09:25:20.260Z,52.47
2023-02-13T09:27:46.894Z,53.39
2023-02-13T09:30:19.137Z,52.82
2023-02-13T09:32:45.679Z,52.16
2023-02-13T09:35:14.986Z,53.20
2023-02-13T09:37:41.550Z,53.49
2023-02-13T09:40:29.665Z,53.16
2023-02-13T09:43:20.370Z,52.54
2023-02-13T09:45:56.037Z,51.50
2023-02-13T09:48:31.215Z,51.05
2023-02-13T09:50:59.514Z,50.99
2023-02-13T09:53:29.426Z,50.74
2023-02-13T09:59:42.394Z,50.73
2023-02-13T10:02:59.525Z,49.78
2023-02-13T10:06:06.725Z,50.15
2023-02-13T10:08:45.903Z,50.22
2023-02-13T10:11:27.003Z,49.77
2023-02-13T10:14:32.836Z,50.25
2023-02-13T10:17:14.496Z,50.39
2023-02-13T10:20:02.503Z,51.75
2023-02-13T10:22:42.208Z,49.12
2023-02-13T10:25:16.155Z,49.57
2023-02-13T10:27:50.210Z,49.78
2023-02-13T10:30:24.363Z,50.39
2023-02-13T10:33:21.128Z,48.74
2023-02-13T10:35:59.761Z,50.09
2023-02-13T10:38:31.256Z,50.11
2023-02-13T10:41:16.291Z,51.38
2023-02-13T10:44:40.065Z,53.22
2023-02-13T10:47:39.617Z,48.03
2023-02-13T10:50:26.955Z,49.95
2023-02-13T10:53:15.110Z,49.40
2023-02-13T10:56:28.188Z,49.13
2023-02-13T10:59:28.212Z,49.00
2023-02-13T11:02:03.806Z,49.30
2023-02-13T11:04:30.960Z,50.01
2023-02-13T11:07:06.055Z,48.09
2023-02-13T11:09:40.095Z,48.01
2023-02-13T11:23:57.679Z,47.41
2023-02-13T11:26:53.867Z,47.41
2023-02-13T11:29:59.846Z,48.01
2023-02-13T11:32:29.573Z,47.43
2023-02-13T11:34:56.823Z,48.18
2023-02-13T11:37:28.039Z,47.81
2023-02-13T11:39:57.710Z,48.19
2023-02-13T11:42:29.570Z,47.86
2023-02-13T11:45:01.607Z,48.29
2023-02-13T11:47:46.239Z,47.89
2023-02-13T11:50:42.532Z,48.39
2023-02-13T11:53:21.426Z,48.22
2023-02-13T11:56:10.190Z,47.22
2023-02-13T11:58:37.468Z,47.39
2023-02-13T12:01:11.534Z,47.43
2023-02-13T12:03:38.899Z,48.36
2023-02-13T12:06:13.186Z,47.98
2023-02-13T12:08:45.851Z,47.84
2023-02-13T12:11:37.004Z,47.59
2023-02-13T12:14:40.970Z,47.96
2023-02-13T12:17:25.548Z,48.54
2023-02-13T12:19:57.681Z,48.75
2023-02-13T12:22:47.368Z,48.14
2023-02-13T12:25:54.758Z,46.86
2023-02-13T12:28:55.323Z,47.36
2023-02-13T12:31:44.267Z,46.87
2023-02-13T12:34:33.662Z,48.07
2023-02-13T12:37:11.886Z,45.93
2023-02-13T12:39:47.528Z,46.40
2023-02-13T12:57:03.078Z,42.63
2023-02-13T13:00:22.738Z,43.23
2023-02-13T13:03:29.880Z,44.04
2023-02-13T13:06:31.883Z,44.75
2023-02-13T13:09:07.868Z,45.30
2023-02-13T13:12:01.807Z,44.57
2023-02-13T13:15:09.146Z,44.50
2023-02-13T13:18:02.156Z,44.24
2023-02-13T13:20:52.265Z,44.58
2023-02-13T13:23:30.697Z,44.74
2023-02-13T13:26:26.428Z,44.76
2023-02-13T13:28:57.029Z,46.19
2023-02-13T13:31:26.797Z,45.21
2023-02-13T13:33:58.472Z,46.04
2023-02-13T13:36:33.991Z,45.90
2023-02-13T13:39:15.623Z,45.62
2023-02-13T13:41:47.054Z,46.20
2023-02-13T13:44:20.638Z,45.91
2023-02-13T13:46:59.557Z,46.10
2023-02-13T13:49:46.660Z,45.51
2023-02-13T13:52:39.842Z,45.58
2023-02-13T13:55:26.814Z,45.96
2023-02-13T13:58:00.758Z,45.66
2023-02-13T14:00:30.349Z,45.32
2023-02-13T14:03:20.518Z,45.04
2023-02-13T14:06:06.795Z,45.57
2023-02-13T14:08:45.466Z,45.64
2023-02-13T14:11:35.411Z,45.78
2023-02-13T14:14:22.696Z,46.18
2023-02-13T14:16:49.294Z,46.64
2023-02-13T14:19:40.605Z,46.59
2023-02-13T14:22:19.503Z,46.85
2023-02-13T14:25:07.303Z,47.03
2023-02-13T14:27:40.741Z,46.58
2023-02-13T14:30:27.046Z,46.76
2023-02-13T14:32:54.324Z,47.42
2023-02-13T14:35:27.603Z,47.24
2023-02-13T14:37:59.509Z,48.00
2023-02-13T14:40:43.471Z,47.44
2023-02-13T14:43:27.104Z,47.25
2023-02-13T14:46:14.463Z,48.32
2023-02-13T14:48:48.708Z,48.12
2023-02-13T14:51:28.885Z,48.05
2023-02-13T14:54:20.391Z,47.92
2023-02-13T14:56:52.294Z,47.84
2023-02-13T14:59:29.235Z,48.49
2023-02-13T15:02:00.880Z,48.59
2023-02-13T15:04:34.885Z,48.67
2023-02-13T15:07:06.345Z,48.68
2023-02-13T15:09:40.070Z,48.64
2023-02-13T15:12:33.569Z,49.10
2023-02-13T15:15:03.511Z,48.80
2023-02-13T15:17:40.127Z,48.66
2023-02-13T15:20:12.466Z,48.72
2023-02-13T15:22:45.295Z,49.60
2023-02-13T15:25:36.945Z,50.71
2023-02-13T15:28:07.023Z,50.71
2023-02-13T15:30:38.325Z,50.31
2023-02-13T15:33:17.844Z,51.00
2023-02-13T15:35:45.080Z,51.12
2023-02-13T15:38:39.316Z,51.04
2023-02-13T15:41:26.621Z,50.35
2023-02-13T15:43:57.852Z,50.50
2023-02-13T15:46:33.844Z,50.90
2023-02-13T15:49:32.296Z,51.39
2023-02-13T15:52:06.762Z,51.70
2023-02-13T15:54:35.110Z,51.50
2023-02-13T15:57:24.626Z,51.20
2023-02-13T15:59:52.501Z,51.31
2023-02-13T16:02:31.843Z,50.75
2023-02-13T16:05:01.242Z,50.66
2023-02-13T16:07:27.867Z,51.74
2023-02-13T16:10:18.762Z,51.51
2023-02-13T16:12:48.495Z,51.34
2023-02-13T16:15:21.326Z,51.39
2023-02-13T16:17:49.018Z,51.38
2023-02-13T16:20:36.683Z,50.88
2023-02-13T16:23:18.258Z,51.83
2023-02-13T16:25:47.685Z,52.11
2023-02-13T16:28:21.500Z,52.34
2023-02-13T16:31:03.064Z,52.15
2023-02-13T16:33:30.767Z,51.34
2023-02-13T16:36:29.024Z,51.77
2023-02-13T16:38:55.673Z,51.24
2023-02-13T16:41:22.271Z,51.51
2023-02-13T16:43:53.627Z,52.07
2023-02-13T16:46:23.097Z,52.77
2023-02-13T16:49:01.357Z,52.92
2023-02-13T16:51:40.066Z,52.92
2023-02-13T16:54:15.757Z,53.03
2023-02-13T16:56:42.245Z,53.99
2023-02-13T16:59:35.067Z,53.71
2023-02-13T17:02:16.687Z,54.01
2023-02-13T17:05:04.718Z,53.81
2023-02-13T17:07:35.971Z,54.26
2023-02-13T17:10:17.325Z,54.03
2023-02-13T17:12:45.673Z,53.83
2023-02-13T17:15:14.543Z,53.85
2023-02-13T17:17:41.298Z,53.46
2023-02-13T17:20:17.571Z,53.85
2023-02-13T17:22:46.407Z,53.91
2023-02-13T17:25:21.825Z,53.89
2023-02-13T17:27:50.251Z,54.10
2023-02-13T17:30:44.178Z,53.85
2023-02-13T17:33:15.198Z,53.75
2023-02-13T17:35:41.788Z,53.70
2023-02-13T17:38:10.072Z,53.79
2023-02-13T17:40:37.394Z,54.05
2023-02-13T17:43:04.222Z,53.60
2023-02-13T17:45:33.038Z,53.51
2023-02-13T17:47:59.661Z,53.78
2023-02-13T17:50:28.301Z,53.82
2023-02-13T17:52:55.498Z,54.73
2023-02-13T17:55:27.210Z,55.01
2023-02-13T17:57:58.499Z,55.88
2023-02-13T18:00:29.125Z,57.77
2023-02-13T18:02:56.484Z,57.66
2023-02-13T18:05:23.052Z,57.25
2023-02-13T18:07:49.725Z,57.58
2023-02-13T18:10:25.478Z,57.47
2023-02-13T18:12:53.698Z,58.20
2023-02-13T18:15:21.155Z,59.06
2023-02-13T18:17:48.245Z,60.50
2023-02-13T18:20:23.064Z,60.60
2023-02-13T18:22:52.477Z,61.22
2023-02-13T18:25:20.250Z,61.11
2023-02-13T18:27:47.345Z,61.84
2023-02-13T18:30:16.428Z,63.37
2023-02-13T18:32:43.129Z,64.46
2023-02-13T18:35:09.907Z,64.60
2023-02-13T18:37:36.645Z,65.31
2023-02-13T18:40:03.450Z,65.40
2023-02-13T18:42:29.997Z,65.83
2023-02-13T18:44:56.555Z,65.37
2023-02-13T18:47:23.089Z,66.20
2023-02-13T18:49:49.842Z,67.19
2023-02-13T18:52:16.442Z,67.49
2023-02-13T18:54:43.079Z,67.82
2023-02-13T18:57:09.863Z,68.04
2023-02-13T18:59:37.926Z,68.08
2023-02-13T19:02:04.525Z,67.28
2023-02-13T19:04:31.667Z,68.03
2023-02-13T19:06:58.402Z,68.06
2023-02-13T19:09:25.026Z,68.21
2023-02-13T19:11:57.284Z,68.37
2023-02-13T19:15:07.372Z,69.07
2023-02-13T19:17:57.025Z,68.23
2023-02-13T19:20:24.451Z,68.54
2023-02-13T19:22:50.973Z,68.28
2023-02-13T19:25:18.969Z,68.89
2023-02-13T19:27:45.498Z,69.03
2023-02-13T19:30:12.580Z,68.47
2023-02-13T19:32:39.270Z,68.43
2023-02-13T19:35:06.360Z,69.73
2023-02-13T19:37:42.957Z,68.84
2023-02-13T19:40:11.334Z,68.97
2023-02-13T19:42:40.045Z,68.36
2023-02-13T19:45:07.144Z,67.71
2023-02-13T19:47:34.051Z,67.40
2023-02-13T19:50:01.964Z,68.26
2023-02-13T19:52:28.570Z,67.82
2023-02-13T19:54:55.425Z,67.87
2023-02-13T19:57:21.995Z,67.60
2023-02-13T19:59:48.711Z,67.29
2023-02-13T20:02:15.792Z,67.04
2023-02-13T20:04:42.471Z,66.85
2023-02-13T20:07:09.033Z,68.64
2023-02-13T20:09:37.381Z,67.83
2023-02-13T20:12:07.199Z,67.33
2023-02-13T20:14:34.352Z,67.24
2023-02-13T20:17:04.278Z,68.23
2023-02-13T20:19:31.545Z,69.25
2023-02-13T20:21:58.204Z,69.19
2023-02-13T20:24:24.845Z,69.40
2023-02-13T20:26:51.528Z,70.64
2023-02-13T20:29:18.176Z,70.27
2023-02-13T20:31:44.869Z,70.80
2023-02-13T20:34:11.917Z,70.41
2023-02-13T20:36:38.485Z,69.90
2023-02-13T20:39:06.729Z,71.21
2023-02-13T20:41:38.368Z,70.53
2023-02-13T20:44:08.474Z,71.31
2023-02-13T20:46:37.369Z,70.55
2023-02-13T20:49:04.018Z,69.87
2023-02-13T20:51:30.695Z,70.29
2023-02-13T20:53:57.814Z,70.25
2023-02-13T20:56:25.436Z,70.68
2023-02-13T20:58:54.926Z,69.83
2023-02-13T21:01:24.154Z,69.65
2023-02-13T21:03:54.572Z,69.82
2023-02-13T21:06:23.240Z,69.56
2023-02-13T21:08:50.271Z,69.58
2023-02-13T21:11:17.445Z,68.86
2023-02-13T21:13:44.489Z,68.30
2023-02-13T21:16:23.189Z,68.02
2023-02-13T21:18:52.660Z,67.99
2023-02-13T21:21:20.698Z,67.25
2023-02-13T21:23:47.874Z,67.15
2023-02-13T21:26:16.440Z,67.76
2023-02-13T21:28:48.508Z,66.60
2023-02-13T21:31:39.030Z,65.95
2023-02-13T21:34:20.960Z,65.06
2023-02-13T21:37:18.460Z,64.72
2023-02-13T21:39:45.011Z,64.34
2023-02-13T21:42:11.579Z,65.20
2023-02-13T21:47:20.136Z,64.22
2023-02-13T21:49:48.082Z,65.37
2023-02-13T21:52:39.693Z,65.02
2023-02-13T21:55:08.768Z,64.37
2023-02-13T21:57:35.988Z,65.10
2023-02-13T22:00:04.171Z,65.38
2023-02-13T22:09:27.672Z,63.92
2023-02-13T22:11:55.074Z,64.11
2023-02-13T22:14:22.385Z,63.56
2023-02-13T22:16:50.912Z,63.48
2023-02-13T22:19:18.042Z,63.52
2023-02-13T22:22:06.186Z,63.57
2023-02-13T22:24:35.217Z,64.15
2023-02-13T22:27:03.111Z,64.03
2023-02-13T22:29:29.676Z,64.68
2023-02-13T22:31:56.381Z,65.12
2023-02-13T22:34:53.982Z,65.17
2023-02-13T22:37:35.101Z,64.54
2023-02-13T22:40:01.878Z,65.27
2023-02-13T22:42:28.480Z,65.40
2023-02-13T22:44:55.082Z,64.69
2023-02-13T22:47:21.660Z,64.56
2023-02-13T22:49:48.244Z,64.00
2023-02-13T23:25:19.035Z,64.32
2023-02-13T23:27:45.885Z,64.30
2023-02-13T23:30:14.203Z,64.21
2023-02-13T23:32:40.926Z,64.22
2023-02-13T23:35:09.432Z,64.04
2023-02-13T23:53:14.072Z,63.76
2023-02-13T23:55:40.702Z,63.97
2023-02-13T23:58:07.674Z,64.13
